createdAt,value
2022-07-26T00:00:13.383Z,19.46
2022-07-26T00:03:00.533Z,19.41
2022-07-26T00:05:27.583Z,19.49
2022-07-26T00:08:10.949Z,19.35
2022-07-26T00:10:42.486Z,19.38
2022-07-26T00:13:10.202Z,19.40
2022-07-26T00:15:37.744Z,19.38
2022-07-26T00:18:04.859Z,19.34
2022-07-26T00:20:35.277Z,19.35
2022-07-26T00:23:04.348Z,19.15
2022-07-26T00:25:31.391Z,19.16
2022-07-26T00:27:58.473Z,19.14
2022-07-26T00:30:25.549Z,19.08
2022-07-26T00:32:55.628Z,19.03
2022-07-26T00:35:22.921Z,18.98
2022-07-26T00:37:49.745Z,18.97
2022-07-26T00:40:17.744Z,18.97
2022-07-26T00:42:45.032Z,18.98
2022-07-26T00:45:12.910Z,18.74
2022-07-26T00:47:39.826Z,18.24
2022-07-26T00:50:09.981Z,18.30
2022-07-26T00:52:37.023Z,18.28
2022-07-26T00:55:05.092Z,18.40
2022-07-26T00:57:32.662Z,18.49
2022-07-26T01:00:01.409Z,18.47
2022-07-26T01:02:28.363Z,18.64
2022-07-26T01:04:55.556Z,18.62
2022-07-26T01:07:23.430Z,18.61
2022-07-26T01:09:50.265Z,18.57
2022-07-26T01:12:18.293Z,18.62
2022-07-26T01:14:45.541Z,18.61
2022-07-26T01:17:13.392Z,18.64
2022-07-26T01:19:40.722Z,18.69
2022-07-26T01:22:12.453Z,18.68
2022-07-26T01:24:42.090Z,18.66
2022-07-26T01:27:09.150Z,18.61
2022-07-26T01:29:36.634Z,18.52
2022-07-26T01:32:05.176Z,18.54
2022-07-26T01:34:32.121Z,18.50
2022-07-26T01:36:59.033Z,18.54
2022-07-26T01:39:26.134Z,18.59
2022-07-26T01:41:53.486Z,18.53
2022-07-26T01:44:20.318Z,18.63
2022-07-26T01:46:47.603Z,18.63
2022-07-26T01:49:14.734Z,18.64
2022-07-26T01:51:41.788Z,18.67
2022-07-26T01:54:09.341Z,18.65
2022-07-26T01:56:36.491Z,18.47
2022-07-26T01:59:03.637Z,18.47
2022-07-26T02:01:38.271Z,18.43
2022-07-26T02:04:07.021Z,18.49
2022-07-26T02:06:34.677Z,18.48
2022-07-26T02:09:01.957Z,18.41
2022-07-26T02:11:28.885Z,18.34
2022-07-26T02:13:55.953Z,18.32
2022-07-26T02:16:22.803Z,18.16
2022-07-26T02:18:49.682Z,18.08
2022-07-26T02:21:16.994Z,18.19
2022-07-26T02:23:44.866Z,18.20
2022-07-26T02:26:11.767Z,18.35
2022-07-26T02:28:38.975Z,18.46
2022-07-26T02:31:06.060Z,18.37
2022-07-26T02:33:33.154Z,18.12
2022-07-26T02:36:00.174Z,17.94
2022-07-26T02:38:27.040Z,17.99
2022-07-26T02:40:53.933Z,18.03
2022-07-26T02:43:21.007Z,17.95
2022-07-26T02:46:00.912Z,17.84
2022-07-26T02:48:30.425Z,17.74
2022-07-26T02:50:57.461Z,17.68
2022-07-26T02:53:24.390Z,17.52
2022-07-26T02:55:51.505Z,17.54
2022-07-26T02:58:20.111Z,17.64
2022-07-26T03:00:47.392Z,17.69
2022-07-26T03:03:15.208Z,17.73
2022-07-26T03:05:42.558Z,17.63
2022-07-26T03:08:09.781Z,17.51
2022-07-26T03:10:36.978Z,17.71
2022-07-26T03:13:04.013Z,17.82
2022-07-26T03:15:31.147Z,17.98
2022-07-26T03:17:58.452Z,17.55
2022-07-26T03:20:25.349Z,17.33
2022-07-26T03:22:52.453Z,17.46
2022-07-26T03:25:19.634Z,17.35
2022-07-26T03:27:46.684Z,17.23
2022-07-26T03:30:13.810Z,17.09
2022-07-26T03:32:41.158Z,17.26
2022-07-26T03:35:08.951Z,17.25
2022-07-26T03:37:45.603Z,17.34
2022-07-26T03:40:15.354Z,17.45
2022-07-26T03:42:42.637Z,17.62
2022-07-26T03:45:09.774Z,17.62
2022-07-26T03:47:37.533Z,17.59
2022-07-26T03:50:05.188Z,17.54
2022-07-26T03:52:32.062Z,17.53
2022-07-26T03:54:59.494Z,17.54
2022-07-26T03:57:28.424Z,17.65
2022-07-26T03:59:56.019Z,17.44
2022-07-26T04:02:23.237Z,17.62
2022-07-26T04:04:50.152Z,17.36
2022-07-26T04:07:16.999Z,17.50
2022-07-26T04:09:44.692Z,17.52
2022-07-26T04:12:11.484Z,17.42
2022-07-26T04:14:38.733Z,17.29
2022-07-26T04:17:05.995Z,17.37
2022-07-26T04:19:33.111Z,17.54
2022-07-26T04:22:05.419Z,17.62
2022-07-26T04:24:32.780Z,17.58
2022-07-26T04:26:59.668Z,17.75
2022-07-26T04:29:26.747Z,17.70
2022-07-26T04:31:53.914Z,17.77
2022-07-26T04:34:23.006Z,17.62
2022-07-26T04:36:51.369Z,17.62
2022-07-26T04:39:24.987Z,17.76
2022-07-26T04:41:52.143Z,17.81
2022-07-26T04:44:19.336Z,17.80
2022-07-26T04:46:46.449Z,17.86
2022-07-26T04:49:14.160Z,17.83
2022-07-26T04:51:41.909Z,18.06
2022-07-26T04:54:09.047Z,18.03
2022-07-26T04:56:36.386Z,18.18
2022-07-26T04:59:03.906Z,18.15
2022-07-26T05:01:31.059Z,18.18
2022-07-26T05:03:58.093Z,18.27
2022-07-26T05:06:25.389Z,18.29
2022-07-26T05:08:52.242Z,18.35
2022-07-26T05:11:19.490Z,18.55
2022-07-26T05:13:46.979Z,18.68
2022-07-26T05:16:13.881Z,18.64
2022-07-26T05:18:45.435Z,18.64
2022-07-26T05:21:16.487Z,19.03
2022-07-26T05:23:43.666Z,19.04
2022-07-26T05:26:13.231Z,19.00
2022-07-26T05:28:40.743Z,18.94
2022-07-26T05:31:08.064Z,19.36
2022-07-26T05:33:35.312Z,19.33
2022-07-26T05:36:02.715Z,19.40
2022-07-26T05:38:29.838Z,19.77
2022-07-26T05:40:56.661Z,20.13
2022-07-26T05:43:24.251Z,20.34
2022-07-26T05:45:51.512Z,20.69
2022-07-26T05:48:18.426Z,20.61
2022-07-26T05:50:46.860Z,20.37
2022-07-26T05:53:13.952Z,20.49
2022-07-26T05:55:41.272Z,20.39
2022-07-26T05:58:08.568Z,20.73
2022-07-26T06:00:35.726Z,21.18
2022-07-26T06:03:22.240Z,21.92
2022-07-26T06:05:54.369Z,22.34
2022-07-26T06:08:21.744Z,22.01
2022-07-26T06:10:48.983Z,22.07
2022-07-26T06:13:16.765Z,22.36
2022-07-26T06:15:44.272Z,23.12
2022-07-26T06:18:11.422Z,24.06
2022-07-26T06:20:40.317Z,24.64
2022-07-26T06:23:07.378Z,25.47
2022-07-26T06:25:34.606Z,26.21
2022-07-26T06:28:03.488Z,25.82
2022-07-26T06:30:30.598Z,26.23
2022-07-26T06:32:57.942Z,26.05
2022-07-26T06:35:25.585Z,26.23
2022-07-26T06:37:52.681Z,27.38
2022-07-26T06:40:19.847Z,28.19
2022-07-26T06:42:47.154Z,28.97
2022-07-26T06:45:14.216Z,28.78
2022-07-26T06:47:41.311Z,28.89
2022-07-26T06:50:09.399Z,27.89
2022-07-26T06:52:36.491Z,27.39
2022-07-26T06:55:04.128Z,26.52
2022-07-26T06:57:31.550Z,26.25
2022-07-26T06:59:58.544Z,25.97
2022-07-26T07:02:26.555Z,25.99
2022-07-26T07:04:53.706Z,26.00
2022-07-26T07:07:20.595Z,26.35
2022-07-26T07:09:47.615Z,26.80
2022-07-26T07:12:15.743Z,27.66
2022-07-26T07:14:42.664Z,29.04
2022-07-26T07:17:13.045Z,28.51
2022-07-26T07:19:41.208Z,27.33
2022-07-26T07:22:12.164Z,28.95
2022-07-26T07:24:40.038Z,31.25
2022-07-26T07:27:07.337Z,32.56
2022-07-26T07:29:34.348Z,31.95
2022-07-26T07:32:03.509Z,31.60
2022-07-26T07:34:30.914Z,33.37
2022-07-26T07:36:58.010Z,34.65
2022-07-26T07:39:27.195Z,34.44
2022-07-26T07:42:02.373Z,34.73
2022-07-26T07:44:29.477Z,34.18
2022-07-26T07:46:56.611Z,32.39
2022-07-26T07:49:24.650Z,32.82
2022-07-26T07:51:51.797Z,32.13
2022-07-26T07:54:19.228Z,30.65
2022-07-26T07:56:50.025Z,28.88
2022-07-26T07:59:17.097Z,28.63
2022-07-26T08:01:45.089Z,27.82
2022-07-26T08:04:12.493Z,27.76
2022-07-26T08:06:40.900Z,28.00
2022-07-26T08:09:08.764Z,28.04
2022-07-26T08:11:36.644Z,27.43
2022-07-26T08:14:08.835Z,26.86
2022-07-26T08:16:36.587Z,27.32
2022-07-26T08:19:04.220Z,27.88
2022-07-26T08:21:31.376Z,28.96
2022-07-26T08:23:58.264Z,28.80
2022-07-26T08:26:25.579Z,29.42
2022-07-26T08:28:59.962Z,29.30
2022-07-26T08:31:28.435Z,28.88
2022-07-26T08:33:55.525Z,28.22
2022-07-26T08:36:22.609Z,28.48
2022-07-26T08:38:49.861Z,29.84
2022-07-26T08:41:17.921Z,30.87
2022-07-26T08:43:52.410Z,32.44
2022-07-26T08:46:25.156Z,32.85
2022-07-26T08:48:53.407Z,32.42
2022-07-26T08:51:22.778Z,32.36
2022-07-26T08:53:50.853Z,32.81
2022-07-26T08:56:17.974Z,32.17
2022-07-26T08:58:46.081Z,31.05
2022-07-26T09:01:13.654Z,29.21
2022-07-26T09:03:41.388Z,27.92
2022-07-26T09:06:15.814Z,28.01
2022-07-26T09:08:43.586Z,29.06
2022-07-26T09:11:28.756Z,30.59
2022-07-26T09:14:00.125Z,31.38
2022-07-26T09:16:27.766Z,31.78
2022-07-26T09:18:55.436Z,31.51
2022-07-26T09:21:32.931Z,32.22
2022-07-26T09:24:00.196Z,31.60
2022-07-26T09:26:28.155Z,31.32
2022-07-26T09:29:07.518Z,31.11
2022-07-26T09:31:35.451Z,29.44
2022-07-26T09:34:02.412Z,28.48
2022-07-26T09:36:29.542Z,27.77
2022-07-26T09:38:59.103Z,27.12
2022-07-26T09:41:31.544Z,26.73
2022-07-26T09:44:00.842Z,26.68
2022-07-26T09:46:28.872Z,26.73
2022-07-26T09:49:12.646Z,27.21
2022-07-26T09:51:41.596Z,28.63
2022-07-26T09:54:10.426Z,31.26
2022-07-26T09:56:44.835Z,33.16
2022-07-26T09:59:13.357Z,33.82
2022-07-26T10:01:40.278Z,31.92
2022-07-26T10:04:08.092Z,30.09
2022-07-26T10:06:35.375Z,29.03
2022-07-26T10:09:02.915Z,28.34
2022-07-26T10:11:32.289Z,27.97
2022-07-26T10:13:59.485Z,27.87
2022-07-26T10:16:33.337Z,28.01
2022-07-26T10:19:02.980Z,29.23
2022-07-26T10:21:30.331Z,33.46
2022-07-26T10:24:01.347Z,35.31
2022-07-26T10:26:31.256Z,34.61
2022-07-26T10:29:16.656Z,33.83
2022-07-26T10:31:51.276Z,35.84
2022-07-26T10:34:37.620Z,38.50
2022-07-26T10:37:09.073Z,37.82
2022-07-26T10:39:36.486Z,36.75
2022-07-26T10:42:05.194Z,32.80
2022-07-26T10:44:36.417Z,34.35
2022-07-26T10:47:15.813Z,32.52
2022-07-26T10:49:45.534Z,30.65
2022-07-26T10:52:12.615Z,29.48
2022-07-26T10:54:58.204Z,28.10
2022-07-26T10:57:25.774Z,27.73
2022-07-26T10:59:56.158Z,28.20
2022-07-26T11:02:28.983Z,28.00
2022-07-26T11:05:13.169Z,29.57
2022-07-26T11:07:55.051Z,33.18
2022-07-26T11:10:40.838Z,36.68
2022-07-26T11:13:18.024Z,38.51
2022-07-26T11:16:05.331Z,39.97
2022-07-26T11:18:35.409Z,38.56
2022-07-26T11:21:13.119Z,35.51
2022-07-26T11:23:40.992Z,33.21
2022-07-26T11:26:16.414Z,30.95
2022-07-26T11:28:44.428Z,29.59
2022-07-26T11:31:14.390Z,28.79
2022-07-26T11:33:42.797Z,27.21
2022-07-26T11:36:09.966Z,27.14
2022-07-26T11:38:51.018Z,27.05
2022-07-26T11:41:34.207Z,27.12
2022-07-26T11:44:04.616Z,26.87
2022-07-26T11:46:38.914Z,26.95
2022-07-26T11:49:12.942Z,27.27
2022-07-26T11:51:40.161Z,28.00
2022-07-26T11:54:07.320Z,29.91
2022-07-26T11:56:34.365Z,32.71
2022-07-26T11:59:01.484Z,35.01
2022-07-26T12:01:28.890Z,36.53
2022-07-26T12:03:56.421Z,37.50
2022-07-26T12:06:24.774Z,37.19
2022-07-26T12:08:56.244Z,33.36
2022-07-26T12:11:24.406Z,33.54
2022-07-26T12:13:55.350Z,33.88
2022-07-26T12:16:46.187Z,32.52
2022-07-26T12:19:19.344Z,30.87
2022-07-26T12:21:48.036Z,30.00
2022-07-26T12:24:33.212Z,29.49
2022-07-26T12:27:07.730Z,29.12
2022-07-26T12:29:37.833Z,28.88
2022-07-26T12:32:12.546Z,28.67
2022-07-26T12:34:41.389Z,28.50
2022-07-26T12:37:16.455Z,28.57
2022-07-26T12:39:58.699Z,28.63
2022-07-26T12:42:34.361Z,28.61
2022-07-26T12:45:02.473Z,28.30
2022-07-26T12:47:29.578Z,27.87
2022-07-26T12:49:56.431Z,26.90
2022-07-26T12:52:23.768Z,26.12
2022-07-26T12:54:51.738Z,25.47
2022-07-26T12:57:19.982Z,25.63
2022-07-26T12:59:48.271Z,25.81
2022-07-26T13:02:17.280Z,25.82
2022-07-26T13:04:44.426Z,25.58
2022-07-26T13:07:11.446Z,24.55
2022-07-26T13:09:38.665Z,23.95
2022-07-26T13:12:06.554Z,23.25
2022-07-26T13:14:34.660Z,23.26
2022-07-26T13:17:02.538Z,23.04
2022-07-26T13:19:29.687Z,23.47
2022-07-26T13:21:57.316Z,23.89
2022-07-26T13:24:25.188Z,24.30
2022-07-26T13:26:52.358Z,24.20
2022-07-26T13:29:19.533Z,23.98
2022-07-26T13:31:46.706Z,23.70
2022-07-26T13:34:14.353Z,23.44
2022-07-26T13:36:41.471Z,23.07
2022-07-26T13:39:08.702Z,22.53
2022-07-26T13:41:35.801Z,22.46
2022-07-26T13:44:04.688Z,22.32
2022-07-26T13:46:33.696Z,22.27
2022-07-26T13:49:01.735Z,22.23
2022-07-26T13:51:48.447Z,22.26
2022-07-26T13:54:18.117Z,22.18
2022-07-26T13:56:45.497Z,22.04
2022-07-26T13:59:13.120Z,21.89
2022-07-26T14:01:43.185Z,21.79
2022-07-26T14:04:13.301Z,21.64
2022-07-26T14:06:40.897Z,21.44
2022-07-26T14:09:10.934Z,21.45
2022-07-26T14:11:38.565Z,21.26
2022-07-26T14:14:06.081Z,21.48
2022-07-26T14:16:33.942Z,21.38
2022-07-26T14:19:00.943Z,21.89
2022-07-26T14:21:28.488Z,22.20
2022-07-26T14:24:06.095Z,22.55
2022-07-26T14:26:33.017Z,22.82
2022-07-26T14:28:59.999Z,23.12
2022-07-26T14:31:27.408Z,23.12
2022-07-26T14:33:54.321Z,23.05
2022-07-26T14:36:21.220Z,23.15
2022-07-26T14:38:50.244Z,22.98
2022-07-26T14:41:17.140Z,23.04
2022-07-26T14:43:45.341Z,23.15
2022-07-26T14:46:13.325Z,23.14
2022-07-26T14:48:54.023Z,23.18
2022-07-26T14:51:22.095Z,23.28
2022-07-26T14:53:48.893Z,23.13
2022-07-26T14:56:15.706Z,23.09
2022-07-26T14:58:45.228Z,22.97
2022-07-26T15:01:12.165Z,22.95
2022-07-26T15:03:39.095Z,22.98
2022-07-26T15:06:06.272Z,22.95
2022-07-26T15:08:33.154Z,22.96
2022-07-26T15:11:00.561Z,23.08
2022-07-26T15:13:27.885Z,23.22
2022-07-26T15:15:54.946Z,23.30
2022-07-26T15:18:22.182Z,23.38
2022-07-26T15:20:51.783Z,23.48
2022-07-26T15:23:18.906Z,23.45
2022-07-26T15:25:48.810Z,23.45
2022-07-26T15:28:16.979Z,23.48
2022-07-26T15:30:44.339Z,23.38
2022-07-26T15:33:13.203Z,23.02
2022-07-26T15:35:41.715Z,23.19
2022-07-26T15:38:08.674Z,22.95
2022-07-26T15:40:35.774Z,22.82
2022-07-26T15:43:03.625Z,22.55
2022-07-26T15:45:32.186Z,22.48
2022-07-26T15:48:11.352Z,22.38
2022-07-26T15:50:43.121Z,22.33
2022-07-26T15:53:10.530Z,22.44
2022-07-26T15:55:37.885Z,22.51
2022-07-26T15:58:05.493Z,22.59
2022-07-26T16:00:32.590Z,22.67
2022-07-26T16:02:59.727Z,22.71
2022-07-26T16:05:27.107Z,22.63
2022-07-26T16:07:54.500Z,22.67
2022-07-26T16:10:21.567Z,22.68
2022-07-26T16:12:48.782Z,22.68
2022-07-26T16:15:15.885Z,22.68
2022-07-26T16:17:43.012Z,22.75
2022-07-26T16:20:10.349Z,22.85
2022-07-26T16:22:41.429Z,22.80
2022-07-26T16:25:09.179Z,22.78
2022-07-26T16:27:36.602Z,22.77
2022-07-26T16:30:03.587Z,22.89
2022-07-26T16:32:31.071Z,22.89
2022-07-26T16:34:58.451Z,23.00
2022-07-26T16:37:25.298Z,23.08
2022-07-26T16:39:53.498Z,23.17
2022-07-26T16:42:20.892Z,23.22
2022-07-26T16:44:47.958Z,23.28
2022-07-26T16:47:15.189Z,23.19
2022-07-26T16:49:42.435Z,23.09
2022-07-26T16:52:09.372Z,23.08
2022-07-26T16:54:36.676Z,22.90
2022-07-26T16:57:04.026Z,22.83
2022-07-26T16:59:31.266Z,22.72
2022-07-26T17:01:59.707Z,22.67
2022-07-26T17:04:30.474Z,22.49
2022-07-26T17:07:23.318Z,22.65
2022-07-26T17:09:45.038Z,22.71
2022-07-26T17:12:11.852Z,22.57
2022-07-26T17:14:38.720Z,22.38
2022-07-26T17:17:06.027Z,22.29
2022-07-26T17:19:33.167Z,22.13
2022-07-26T17:22:00.151Z,22.01
2022-07-26T17:24:28.057Z,21.88
2022-07-26T17:26:55.134Z,21.70
2022-07-26T17:29:22.147Z,21.50
2022-07-26T17:31:50.686Z,21.41
2022-07-26T17:34:17.662Z,21.35
2022-07-26T17:36:44.892Z,21.35
2022-07-26T17:39:14.905Z,21.37
2022-07-26T17:41:47.473Z,21.41
2022-07-26T17:44:15.188Z,21.36
2022-07-26T17:46:42.531Z,21.19
2022-07-26T17:49:10.043Z,21.11
2022-07-26T17:51:37.984Z,21.04
2022-07-26T17:54:05.656Z,21.06
2022-07-26T17:56:32.764Z,20.99
2022-07-26T17:59:00.074Z,20.99
2022-07-26T18:01:27.057Z,20.98
2022-07-26T18:03:54.494Z,20.96
2022-07-26T18:06:22.004Z,20.90
2022-07-26T18:08:49.100Z,20.89
2022-07-26T18:11:15.961Z,20.90
2022-07-26T18:13:43.382Z,20.83
2022-07-26T18:16:10.693Z,20.79
2022-07-26T18:18:37.597Z,20.85
2022-07-26T18:21:05.077Z,20.93
2022-07-26T18:23:32.167Z,20.91
2022-07-26T18:25:59.357Z,20.85
2022-07-26T18:28:27.067Z,20.76
2022-07-26T18:30:54.085Z,20.69
2022-07-26T18:33:20.996Z,20.65
2022-07-26T18:35:48.472Z,20.67
2022-07-26T18:38:15.394Z,20.65
2022-07-26T18:40:42.304Z,20.65
2022-07-26T18:43:09.775Z,20.61
2022-07-26T18:45:36.651Z,20.40
2022-07-26T18:48:03.568Z,20.29
2022-07-26T18:50:32.327Z,20.26
2022-07-26T18:52:59.693Z,20.13
2022-07-26T18:55:27.294Z,20.14
2022-07-26T18:57:54.913Z,19.97
2022-07-26T19:00:22.805Z,19.80
2022-07-26T19:02:52.355Z,19.59
2022-07-26T19:05:23.243Z,19.65
2022-07-26T19:07:50.855Z,19.67
2022-07-26T19:10:17.986Z,19.48
2022-07-26T19:12:45.948Z,19.38
2022-07-26T19:15:16.191Z,19.38
2022-07-26T19:17:43.454Z,19.36
2022-07-26T19:20:11.045Z,19.30
2022-07-26T19:22:38.471Z,19.25
2022-07-26T19:25:06.436Z,19.20
2022-07-26T19:27:33.666Z,19.20
2022-07-26T19:30:00.703Z,19.14
2022-07-26T19:32:31.817Z,19.07
2022-07-26T19:35:00.965Z,19.06
2022-07-26T19:37:28.320Z,18.96
2022-07-26T19:40:01.535Z,18.91
2022-07-26T19:42:29.454Z,18.85
2022-07-26T19:44:56.529Z,18.82
2022-07-26T19:47:23.875Z,18.76
2022-07-26T19:49:51.031Z,18.65
2022-07-26T19:52:17.837Z,18.55
2022-07-26T19:54:44.740Z,18.52
2022-07-26T19:57:11.902Z,18.52
2022-07-26T19:59:39.483Z,18.39
2022-07-26T20:02:06.538Z,18.39
2022-07-26T20:04:33.903Z,18.37
2022-07-26T20:07:00.870Z,18.39
2022-07-26T20:09:29.789Z,18.40
2022-07-26T20:11:57.540Z,18.41
2022-07-26T20:14:24.899Z,18.34
2022-07-26T20:16:56.102Z,18.27
2022-07-26T20:19:24.405Z,18.14
2022-07-26T20:21:51.424Z,18.13
2022-07-26T20:24:19.185Z,18.09
2022-07-26T20:26:46.412Z,17.99
2022-07-26T20:29:13.712Z,17.98
2022-07-26T20:31:41.016Z,17.86
2022-07-26T20:34:08.203Z,17.85
2022-07-26T20:36:35.149Z,17.85
2022-07-26T20:39:02.494Z,17.75
2022-07-26T20:41:33.799Z,17.84
2022-07-26T20:44:01.082Z,17.73
2022-07-26T20:46:28.119Z,17.73
2022-07-26T20:48:55.724Z,17.75
2022-07-26T20:51:22.683Z,17.70
2022-07-26T20:53:49.601Z,17.64
2022-07-26T20:56:16.908Z,17.61
2022-07-26T20:58:43.903Z,17.52
2022-07-26T21:01:11.474Z,17.49
2022-07-26T21:03:38.496Z,17.45
2022-07-26T21:06:05.373Z,17.44
2022-07-26T21:08:32.137Z,17.39
2022-07-26T21:10:59.127Z,17.36
2022-07-26T21:13:25.862Z,17.38
2022-07-26T21:15:54.358Z,17.36
2022-07-26T21:18:21.662Z,17.33
2022-07-26T21:20:48.822Z,17.26
2022-07-26T21:23:17.774Z,17.29
2022-07-26T21:25:45.527Z,17.22
2022-07-26T21:28:12.453Z,17.17
2022-07-26T21:30:39.249Z,17.13
2022-07-26T21:33:06.288Z,17.23
2022-07-26T21:35:33.580Z,17.26
2022-07-26T21:38:01.013Z,17.22
2022-07-26T21:40:28.075Z,17.20
2022-07-26T21:42:54.812Z,17.25
2022-07-26T21:45:21.733Z,17.10
2022-07-26T21:47:48.869Z,17.07
2022-07-26T21:50:15.601Z,17.06
2022-07-26T21:52:42.488Z,17.03
2022-07-26T21:55:09.476Z,16.87
2022-07-26T21:57:44.504Z,16.81
2022-07-26T22:00:12.340Z,16.79
2022-07-26T22:02:39.212Z,16.72
2022-07-26T22:05:29.160Z,16.71
2022-07-26T22:07:56.102Z,16.56
2022-07-26T22:10:22.831Z,16.44
2022-07-26T22:12:49.592Z,16.47
2022-07-26T22:15:16.605Z,16.43
2022-07-26T22:17:43.369Z,16.39
2022-07-26T22:20:10.576Z,16.43
2022-07-26T22:22:38.305Z,16.28
2022-07-26T22:25:05.801Z,16.24
2022-07-26T22:27:32.575Z,16.16
2022-07-26T22:29:59.853Z,16.06
2022-07-26T22:32:27.132Z,15.98
2022-07-26T22:34:54.155Z,15.94
2022-07-26T22:37:21.133Z,15.90
2022-07-26T22:39:47.881Z,15.78
2022-07-26T22:42:15.979Z,15.69
2022-07-26T22:44:43.339Z,15.49
2022-07-26T22:47:10.119Z,15.32
2022-07-26T22:49:37.059Z,15.24
2022-07-26T22:52:04.092Z,15.25
2022-07-26T22:54:30.816Z,15.25
2022-07-26T22:56:57.573Z,15.29
2022-07-26T22:59:25.451Z,15.24
2022-07-26T23:01:52.195Z,15.30
2022-07-26T23:04:19.161Z,15.24
2022-07-26T23:06:46.229Z,15.29
2022-07-26T23:09:13.980Z,15.36
2022-07-26T23:11:41.113Z,15.43
2022-07-26T23:14:08.179Z,15.36
2022-07-26T23:16:35.001Z,15.59
2022-07-26T23:19:01.827Z,15.70
2022-07-26T23:21:29.103Z,15.76
2022-07-26T23:23:55.876Z,15.77
2022-07-26T23:26:22.715Z,15.80
2022-07-26T23:28:50.234Z,15.84
2022-07-26T23:31:17.103Z,15.89
2022-07-26T23:33:53.197Z,16.00
2022-07-26T23:36:22.206Z,16.03
2022-07-26T23:38:48.983Z,15.94
2022-07-26T23:41:15.767Z,16.04
2022-07-26T23:43:42.690Z,16.01
2022-07-26T23:46:09.436Z,16.03
2022-07-26T23:48:36.193Z,16.06
2022-07-26T23:51:03.166Z,16.00
2022-07-26T23:53:30.267Z,16.00
2022-07-26T23:55:56.995Z,15.97
2022-07-26T23:58:23.932Z,15.99
